createdAt,value
2017-09-02T00:00:00.589Z,940.43
2017-09-02T00:00:28.627Z,940.45
2017-09-02T00:00:56.715Z,940.45
2017-09-02T00:01:24.870Z,940.42
2017-09-02T00:01:53.049Z,940.46
2017-09-02T00:02:21.230Z,940.46
2017-09-02T00:02:49.198Z,940.47
2017-09-02T00:03:17.385Z,940.43
2017-09-02T00:03:45.482Z,940.43
2017-09-02T00:04:13.701Z,940.46
2017-09-02T00:04:41.897Z,940.46
2017-09-02T00:05:09.989Z,940.46
2017-09-02T00:05:38.070Z,940.46
2017-09-02T00:06:06.042Z,940.44
2017-09-02T00:06:34.195Z,940.39
2017-09-02T00:07:02.365Z,940.41
2017-09-02T00:07:30.428Z,940.44
2017-09-02T00:07:58.619Z,940.44
2017-09-02T00:08:26.703Z,940.51
2017-09-02T00:08:54.969Z,940.49
2017-09-02T00:09:23.035Z,940.5
2017-09-02T00:09:51.127Z,940.5
2017-09-02T00:10:19.128Z,940.52
2017-09-02T00:10:47.173Z,940.51
2017-09-02T00:11:15.102Z,940.52
2017-09-02T00:11:43.172Z,940.52
2017-09-02T00:12:11.359Z,940.53
2017-09-02T00:12:39.253Z,940.51
2017-09-02T00:13:07.339Z,940.54
2017-09-02T00:13:35.548Z,940.56
2017-09-02T00:14:03.827Z,940.56
2017-09-02T00:14:31.872Z,940.55
2017-09-02T00:14:59.930Z,940.57
2017-09-02T00:15:28.026Z,940.55
2017-09-02T00:15:56.234Z,940.55
2017-09-02T00:16:24.310Z,940.59
2017-09-02T00:16:52.449Z,940.54
2017-09-02T00:17:20.512Z,940.54
2017-09-02T00:17:48.561Z,940.51
2017-09-02T00:18:16.552Z,940.58
2017-09-02T00:18:44.617Z,940.51
2017-09-02T00:19:12.881Z,940.5
2017-09-02T00:19:40.931Z,940.44
2017-09-02T00:20:08.842Z,940.53
2017-09-02T00:20:36.986Z,940.57
2017-09-02T00:21:05.122Z,940.56
2017-09-02T00:21:33.290Z,940.59
2017-09-02T00:22:01.474Z,940.59
2017-09-02T00:22:29.448Z,940.58
2017-09-02T00:22:57.398Z,940.57
2017-09-02T00:23:25.461Z,940.57
2017-09-02T00:23:53.674Z,940.57
2017-09-02T00:24:21.759Z,940.63
2017-09-02T00:24:49.938Z,940.6
2017-09-02T00:25:18.084Z,940.57
2017-09-02T00:25:46.085Z,940.62
2017-09-02T00:26:14.139Z,940.68
2017-09-02T00:26:42.220Z,940.62
2017-09-02T00:27:10.408Z,940.6
2017-09-02T00:27:38.580Z,940.59
2017-09-02T00:28:06.640Z,940.59
2017-09-02T00:28:34.655Z,940.6
2017-09-02T00:29:02.833Z,940.64
2017-09-02T00:29:30.841Z,940.62
2017-09-02T00:29:58.754Z,940.61
2017-09-02T00:30:26.795Z,940.66
2017-09-02T00:30:54.838Z,940.63
2017-09-02T00:31:22.900Z,940.63
2017-09-02T00:31:50.962Z,940.63
2017-09-02T00:32:19.174Z,940.61
2017-09-02T00:32:47.312Z,940.6
2017-09-02T00:33:15.356Z,940.66
2017-09-02T00:33:43.559Z,940.6
2017-09-02T00:34:11.820Z,940.61
2017-09-02T00:34:39.980Z,940.58
2017-09-02T00:35:08.036Z,940.6
2017-09-02T00:35:36.083Z,940.58
2017-09-02T00:36:04.278Z,940.53
2017-09-02T00:36:32.301Z,940.57
2017-09-02T00:37:00.342Z,940.57
2017-09-02T00:37:28.420Z,940.54
2017-09-02T00:37:56.485Z,940.58
2017-09-02T00:38:24.682Z,940.54
2017-09-02T00:38:52.736Z,940.56
2017-09-02T00:39:20.888Z,940.54
2017-09-02T00:39:49.014Z,940.51
2017-09-02T00:40:17.071Z,940.53
2017-09-02T00:40:45.242Z,940.51
2017-09-02T00:41:13.414Z,940.5
2017-09-02T00:41:41.569Z,940.51
2017-09-02T00:42:09.646Z,940.49
2017-09-02T00:42:37.698Z,940.48
2017-09-02T00:43:05.852Z,940.51
2017-09-02T00:43:34.058Z,940.49
2017-09-02T00:44:02.267Z,940.53
2017-09-02T00:44:30.390Z,940.51
2017-09-02T00:44:58.446Z,940.5
2017-09-02T00:45:26.477Z,940.54
2017-09-02T00:45:54.517Z,940.52
2017-09-02T00:46:22.571Z,940.55
2017-09-02T00:46:50.707Z,940.54
2017-09-02T00:47:18.771Z,940.53
2017-09-02T00:47:46.941Z,940.52
2017-09-02T00:48:14.793Z,940.58
2017-09-02T00:48:42.918Z,940.57
2017-09-02T00:49:11.085Z,940.6
2017-09-02T00:49:39.212Z,940.54
2017-09-02T00:50:07.396Z,940.57
2017-09-02T00:50:35.479Z,940.52
2017-09-02T00:51:03.544Z,940.54
2017-09-02T00:51:31.638Z,940.56
2017-09-02T00:51:59.719Z,940.55
2017-09-02T00:52:27.879Z,940.58
2017-09-02T00:52:55.943Z,940.53
2017-09-02T00:53:24.005Z,940.58
2017-09-02T00:53:52.175Z,940.57
2017-09-02T00:54:20.413Z,940.58
2017-09-02T00:54:48.608Z,940.57
2017-09-02T00:55:16.747Z,940.58
2017-09-02T00:55:44.827Z,940.56
2017-09-02T00:56:12.996Z,940.56
2017-09-02T00:56:40.898Z,940.61
2017-09-02T00:57:08.974Z,940.57
2017-09-02T00:57:37.043Z,940.59
2017-09-02T00:58:04.973Z,940.61
2017-09-02T00:58:33.130Z,940.6
2017-09-02T00:59:01.120Z,940.61
2017-09-02T00:59:29.269Z,940.62
2017-09-02T00:59:57.341Z,940.59
2017-09-02T01:00:25.501Z,940.55
2017-09-02T01:00:53.570Z,940.6
2017-09-02T01:01:21.611Z,940.61
2017-09-02T01:01:49.652Z,940.77
2017-09-02T01:02:17.608Z,940.59
2017-09-02T01:02:45.817Z,940.57
2017-09-02T01:03:13.932Z,940.58
2017-09-02T01:03:42.006Z,940.54
2017-09-02T01:04:10.071Z,940.54
2017-09-02T01:04:38.251Z,940.55
2017-09-02T01:05:06.347Z,940.54
2017-09-02T01:05:34.250Z,940.55
2017-09-02T01:06:02.406Z,940.51
2017-09-02T01:06:30.492Z,940.52
2017-09-02T01:06:58.533Z,940.53
2017-09-02T01:07:26.570Z,940.53
2017-09-02T01:07:54.790Z,940.53
2017-09-02T01:08:22.970Z,940.58
2017-09-02T01:08:51.132Z,940.57
2017-09-02T01:09:19.111Z,940.53
2017-09-02T01:09:47.202Z,940.52
2017-09-02T01:10:15.335Z,940.59
2017-09-02T01:10:43.305Z,940.55
2017-09-02T01:11:11.420Z,940.56
2017-09-02T01:11:39.472Z,940.52
2017-09-02T01:12:07.659Z,940.56
2017-09-02T01:12:35.819Z,940.57
2017-09-02T01:13:03.928Z,940.58
2017-09-02T01:13:32.079Z,940.56
2017-09-02T01:14:00.233Z,940.53
2017-09-02T01:14:28.409Z,940.54
2017-09-02T01:14:56.576Z,940.5
2017-09-02T01:15:24.750Z,940.51
2017-09-02T01:15:52.926Z,940.52
2017-09-02T01:16:21.129Z,940.48
2017-09-02T01:16:49.302Z,940.51
2017-09-02T01:17:17.499Z,940.46
2017-09-02T01:17:45.634Z,940.54
2017-09-02T01:18:13.795Z,940.51
2017-09-02T01:18:41.871Z,940.53
2017-09-02T01:19:09.913Z,940.49
2017-09-02T01:19:38.150Z,940.48
2017-09-02T01:20:06.199Z,940.51
2017-09-02T01:20:34.159Z,940.48
2017-09-02T01:21:02.271Z,940.48
2017-09-02T01:21:30.505Z,940.49
2017-09-02T01:21:58.671Z,940.5
2017-09-02T01:22:26.682Z,940.51
2017-09-02T01:22:54.853Z,940.51
2017-09-02T01:23:22.792Z,940.51
2017-09-02T01:23:50.828Z,940.47
2017-09-02T01:24:18.809Z,940.48
2017-09-02T01:24:46.874Z,940.49
2017-09-02T01:25:14.811Z,940.44
2017-09-02T01:25:43.005Z,940.47
2017-09-02T01:26:11.101Z,940.48
2017-09-02T01:26:39.182Z,940.46
2017-09-02T01:27:07.349Z,940.44
2017-09-02T01:27:35.525Z,940.42
2017-09-02T01:28:03.586Z,940.4
2017-09-02T01:28:31.802Z,940.46
2017-09-02T01:28:59.967Z,940.41
2017-09-02T01:29:27.995Z,940.4
2017-09-02T01:29:56.236Z,940.46
2017-09-02T01:30:24.288Z,940.39
2017-09-02T01:30:52.291Z,940.42
2017-09-02T01:31:20.252Z,940.4
2017-09-02T01:31:48.417Z,940.41
2017-09-02T01:32:16.588Z,940.36
2017-09-02T01:32:44.529Z,940.38
2017-09-02T01:33:12.674Z,940.38
2017-09-02T01:33:40.610Z,940.36
2017-09-02T01:34:08.786Z,940.41
2017-09-02T01:34:36.848Z,940.42
2017-09-02T01:35:04.900Z,940.46
2017-09-02T01:35:32.889Z,940.38
2017-09-02T01:36:01.004Z,940.39
2017-09-02T01:36:28.943Z,940.36
2017-09-02T01:36:56.903Z,940.4
2017-09-02T01:37:24.956Z,940.4
2017-09-02T01:37:53.130Z,940.38
2017-09-02T01:38:21.201Z,940.37
2017-09-02T01:38:49.143Z,940.33
2017-09-02T01:39:17.153Z,940.35
2017-09-02T01:39:45.265Z,940.39
2017-09-02T01:40:13.394Z,940.36
2017-09-02T01:40:41.440Z,940.4
2017-09-02T01:41:09.627Z,940.4
2017-09-02T01:41:37.695Z,940.41
2017-09-02T01:42:05.861Z,940.36
2017-09-02T01:42:33.844Z,940.36
2017-09-02T01:43:02.006Z,940.36
2017-09-02T01:43:30.178Z,940.35
2017-09-02T01:43:58.236Z,940.36
2017-09-02T01:44:26.317Z,940.37
2017-09-02T01:44:54.594Z,940.32
2017-09-02T01:45:22.729Z,940.35
2017-09-02T01:45:50.816Z,940.37
2017-09-02T01:46:18.873Z,940.32
2017-09-02T01:46:46.951Z,940.33
2017-09-02T01:47:15.128Z,940.35
2017-09-02T01:47:43.332Z,940.34
2017-09-02T01:48:11.502Z,940.36
2017-09-02T01:48:39.599Z,940.37
2017-09-02T01:49:07.739Z,940.37
2017-09-02T01:49:35.830Z,940.39
2017-09-02T01:50:04.090Z,940.33
2017-09-02T01:50:32.272Z,940.36
2017-09-02T01:51:00.147Z,940.39
2017-09-02T01:51:28.173Z,940.35
2017-09-02T01:51:56.368Z,940.38
2017-09-02T01:52:24.532Z,940.34
2017-09-02T01:52:52.648Z,940.36
2017-09-02T01:53:20.809Z,940.35
2017-09-02T01:53:48.782Z,940.32
2017-09-02T01:54:16.914Z,940.3
2017-09-02T01:54:44.908Z,940.35
2017-09-02T01:55:13.234Z,940.35
2017-09-02T01:55:41.314Z,940.3
2017-09-02T01:56:09.493Z,940.35
2017-09-02T01:56:37.589Z,940.34
2017-09-02T01:57:05.536Z,940.31
2017-09-02T01:57:33.581Z,940.32
2017-09-02T01:58:01.614Z,940.33
2017-09-02T01:58:29.557Z,940.3
2017-09-02T01:58:57.393Z,940.28
2017-09-02T01:59:25.575Z,940.32
2017-09-02T01:59:53.672Z,940.3
2017-09-02T02:00:21.910Z,940.31
2017-09-02T02:00:50.101Z,940.33
2017-09-02T02:01:18.145Z,940.33
2017-09-02T02:01:46.070Z,940.34
2017-09-02T02:02:14.140Z,940.37
2017-09-02T02:02:42.200Z,940.32
2017-09-02T02:03:10.145Z,940.37
2017-09-02T02:03:38.232Z,940.34
2017-09-02T02:04:06.297Z,940.28
2017-09-02T02:04:34.334Z,940.36
2017-09-02T02:05:02.405Z,940.34
2017-09-02T02:05:30.644Z,940.32
2017-09-02T02:05:58.798Z,940.35
2017-09-02T02:06:26.874Z,940.49
2017-09-02T02:06:54.873Z,940.35
2017-09-02T02:07:23.041Z,940.36
2017-09-02T02:07:51.023Z,940.31
2017-09-02T02:08:19.185Z,940.34
2017-09-02T02:08:47.282Z,940.35
2017-09-02T02:09:15.471Z,940.38
2017-09-02T02:09:43.537Z,940.31
2017-09-02T02:10:11.784Z,940.32
2017-09-02T02:10:39.803Z,940.36
2017-09-02T02:11:07.928Z,940.35
2017-09-02T02:11:36.082Z,940.32
2017-09-02T02:12:04.206Z,940.34
2017-09-02T02:12:32.134Z,940.28
2017-09-02T02:13:00.367Z,940.34
2017-09-02T02:13:28.327Z,940.35
2017-09-02T02:13:56.520Z,940.31
2017-09-02T02:14:24.605Z,940.31
2017-09-02T02:14:52.830Z,940.34
2017-09-02T02:15:21.054Z,940.3
2017-09-02T02:15:49.143Z,940.3
2017-09-02T02:16:17.260Z,940.32
2017-09-02T02:16:45.325Z,940.29
2017-09-02T02:17:13.467Z,940.27
2017-09-02T02:17:41.493Z,940.29
2017-09-02T02:18:09.351Z,940.28
2017-09-02T02:18:37.505Z,940.29
2017-09-02T02:19:05.677Z,940.28
2017-09-02T02:19:33.441Z,940.26
2017-09-02T02:20:01.398Z,940.27
2017-09-02T02:20:29.440Z,940.28
2017-09-02T02:20:57.590Z,940.26
2017-09-02T02:21:25.696Z,940.27
2017-09-02T02:21:53.817Z,940.27
2017-09-02T02:22:21.993Z,940.26
2017-09-02T02:22:49.945Z,940.23
2017-09-02T02:23:18.120Z,940.26
2017-09-02T02:23:46.252Z,940.26
2017-09-02T02:24:14.387Z,940.24
2017-09-02T02:24:42.444Z,940.25
2017-09-02T02:25:10.467Z,940.21
2017-09-02T02:25:38.705Z,940.24
2017-09-02T02:26:06.927Z,940.24
2017-09-02T02:26:35.049Z,940.21
2017-09-02T02:27:03.191Z,940.21
2017-09-02T02:27:31.352Z,940.23
2017-09-02T02:27:59.297Z,940.16
2017-09-02T02:28:27.462Z,940.21
2017-09-02T02:28:55.550Z,940.2
2017-09-02T02:29:23.497Z,940.23
2017-09-02T02:29:51.598Z,940.2
2017-09-02T02:30:19.559Z,940.25
2017-09-02T02:30:47.778Z,940.23
2017-09-02T02:31:15.845Z,940.26
2017-09-02T02:31:43.977Z,940.15
2017-09-02T02:32:12.101Z,940.23
2017-09-02T02:32:40.308Z,940.22
2017-09-02T02:33:08.375Z,940.17
2017-09-02T02:33:36.566Z,940.22
2017-09-02T02:34:04.696Z,940.23
2017-09-02T02:34:32.722Z,940.22
2017-09-02T02:35:00.835Z,940.21
2017-09-02T02:35:28.906Z,940.23
2017-09-02T02:35:56.948Z,940.27
2017-09-02T02:36:25.070Z,940.26
2017-09-02T02:36:53.236Z,940.26
2017-09-02T02:37:21.336Z,940.24
2017-09-02T02:37:49.384Z,940.21
2017-09-02T02:38:17.535Z,940.25
2017-09-02T02:38:45.709Z,940.25
2017-09-02T02:39:13.667Z,940.23
2017-09-02T02:39:41.730Z,940.3
2017-09-02T02:40:09.881Z,940.26
2017-09-02T02:40:38.130Z,940.27
2017-09-02T02:41:06.215Z,940.26
2017-09-02T02:41:34.303Z,940.22
2017-09-02T02:42:02.552Z,940.23
2017-09-02T02:42:30.603Z,940.18
2017-09-02T02:42:58.675Z,940.26
2017-09-02T02:43:26.762Z,940.15
2017-09-02T02:43:54.678Z,940.17
2017-09-02T02:44:22.758Z,940.19
2017-09-02T02:44:50.802Z,940.16
2017-09-02T02:45:18.734Z,940.22
2017-09-02T02:45:46.877Z,940.21
2017-09-02T02:46:15.055Z,940.15
2017-09-02T02:46:43.028Z,940.14
2017-09-02T02:47:11.198Z,940.21
2017-09-02T02:47:39.252Z,940.14
2017-09-02T02:48:07.443Z,940.17
2017-09-02T02:48:35.680Z,940.16
2017-09-02T02:49:03.887Z,940.17
2017-09-02T02:49:32.048Z,940.16
2017-09-02T02:50:00.178Z,940.15
2017-09-02T02:50:28.164Z,940.17
2017-09-02T02:50:56.240Z,940.19
2017-09-02T02:51:24.351Z,940.16
2017-09-02T02:51:52.522Z,940.13
2017-09-02T02:52:20.682Z,940.15
2017-09-02T02:52:48.635Z,940.17
2017-09-02T02:53:16.807Z,940.16
2017-09-02T02:53:44.990Z,940.15
2017-09-02T02:54:13.047Z,940.14
2017-09-02T02:54:41.141Z,940.13
2017-09-02T02:55:09.223Z,940.12
2017-09-02T02:55:37.398Z,940.05
2017-09-02T02:56:05.590Z,940.06
2017-09-02T02:56:33.669Z,940.04
2017-09-02T02:57:01.723Z,940.03
2017-09-02T02:57:29.740Z,940.02
2017-09-02T02:57:57.900Z,940.05
2017-09-02T02:58:26.032Z,940.01
2017-09-02T02:58:54.118Z,939.99
2017-09-02T02:59:22.284Z,939.97
2017-09-02T02:59:50.430Z,939.96
2017-09-02T03:00:18.540Z,939.96
2017-09-02T03:00:46.789Z,939.99
2017-09-02T03:01:15.000Z,939.94
2017-09-02T03:01:43.091Z,939.92
2017-09-02T03:02:11.230Z,939.93
2017-09-02T03:02:39.305Z,939.93
2017-09-02T03:03:07.491Z,939.96
2017-09-02T03:03:35.550Z,939.94
2017-09-02T03:04:03.701Z,939.92
2017-09-02T03:04:31.766Z,939.92
2017-09-02T03:04:59.702Z,939.9
2017-09-02T03:05:27.883Z,939.94
2017-09-02T03:05:56.125Z,939.91
2017-09-02T03:06:24.180Z,939.9
2017-09-02T03:06:52.333Z,939.92
2017-09-02T03:07:20.407Z,939.94
2017-09-02T03:07:48.489Z,939.91
2017-09-02T03:08:16.672Z,939.91
2017-09-02T03:08:44.769Z,939.94
2017-09-02T03:09:12.835Z,939.96
2017-09-02T03:09:40.970Z,939.91
2017-09-02T03:10:08.957Z,939.91
2017-09-02T03:10:37.108Z,939.89
2017-09-02T03:11:05.402Z,939.92
2017-09-02T03:11:33.365Z,939.96
2017-09-02T03:12:01.412Z,939.92
2017-09-02T03:12:29.595Z,939.92
2017-09-02T03:12:57.595Z,939.95
2017-09-02T03:13:25.675Z,939.95
2017-09-02T03:13:53.755Z,939.95
2017-09-02T03:14:21.823Z,939.94
2017-09-02T03:14:49.894Z,939.9
2017-09-02T03:15:17.963Z,939.88
2017-09-02T03:15:46.170Z,939.89
2017-09-02T03:16:14.378Z,939.86
2017-09-02T03:16:42.542Z,939.88
2017-09-02T03:17:10.476Z,939.88
2017-09-02T03:17:38.533Z,939.88
2017-09-02T03:18:06.659Z,939.89
2017-09-02T03:18:34.710Z,939.85
2017-09-02T03:19:02.692Z,939.85
2017-09-02T03:19:30.670Z,939.84
2017-09-02T03:19:58.687Z,939.85
2017-09-02T03:20:26.894Z,939.83
2017-09-02T03:20:54.877Z,939.83
2017-09-02T03:21:23.139Z,939.87
2017-09-02T03:21:51.302Z,939.86
2017-09-02T03:22:19.330Z,939.82
2017-09-02T03:22:47.453Z,939.85
2017-09-02T03:23:15.378Z,939.82
2017-09-02T03:23:43.358Z,939.84
2017-09-02T03:24:11.525Z,939.83
2017-09-02T03:24:39.669Z,939.87
2017-09-02T03:25:07.746Z,939.83
2017-09-02T03:25:35.829Z,939.85
2017-09-02T03:26:03.894Z,939.85
2017-09-02T03:26:32.051Z,939.81
2017-09-02T03:27:00.242Z,939.82
2017-09-02T03:27:28.307Z,939.85
2017-09-02T03:27:57.045Z,939.83
2017-09-02T03:28:25.240Z,939.78
2017-09-02T03:28:53.316Z,939.86
2017-09-02T03:29:21.487Z,939.79
2017-09-02T03:29:49.663Z,939.87
2017-09-02T03:30:17.816Z,939.86
2017-09-02T03:30:45.971Z,939.84
2017-09-02T03:31:14.156Z,939.83
2017-09-02T03:31:42.021Z,939.8
2017-09-02T03:32:09.926Z,939.78
2017-09-02T03:32:38.078Z,939.81
2017-09-02T03:33:06.238Z,939.79
2017-09-02T03:33:34.197Z,939.77
2017-09-02T03:34:02.190Z,939.84
2017-09-02T03:34:30.232Z,939.75
2017-09-02T03:34:58.361Z,939.81
2017-09-02T03:35:26.508Z,939.73
2017-09-02T03:35:54.594Z,939.7
2017-09-02T03:36:22.577Z,939.77
2017-09-02T03:36:50.651Z,939.74
2017-09-02T03:37:18.647Z,939.71
2017-09-02T03:37:46.797Z,939.7
2017-09-02T03:38:14.890Z,939.72
2017-09-02T03:38:43.004Z,939.68
2017-09-02T03:39:11.024Z,939.74
2017-09-02T03:39:38.902Z,939.71
2017-09-02T03:40:06.813Z,939.66
2017-09-02T03:40:34.815Z,939.72
2017-09-02T03:41:02.986Z,939.71
2017-09-02T03:41:31.176Z,939.73
2017-09-02T03:41:59.267Z,939.73
2017-09-02T03:42:27.434Z,939.73
2017-09-02T03:42:55.591Z,939.74
2017-09-02T03:43:23.651Z,939.74
2017-09-02T03:43:51.712Z,939.71
2017-09-02T03:44:19.860Z,939.73
2017-09-02T03:44:47.815Z,939.67
2017-09-02T03:45:15.868Z,939.7
2017-09-02T03:45:43.955Z,939.72
2017-09-02T03:46:11.918Z,939.72
2017-09-02T03:46:40.201Z,939.66
2017-09-02T03:47:08.279Z,939.72
2017-09-02T03:47:36.333Z,939.7
2017-09-02T03:48:04.166Z,939.68
2017-09-02T03:48:32.277Z,939.69
2017-09-02T03:49:00.413Z,939.68
2017-09-02T03:49:28.624Z,939.66
2017-09-02T03:49:56.760Z,939.65
2017-09-02T03:50:24.838Z,939.66
2017-09-02T03:50:52.905Z,939.67
2017-09-02T03:51:20.933Z,939.62
2017-09-02T03:51:49.102Z,939.64
2017-09-02T03:52:17.285Z,939.64
2017-09-02T03:52:45.426Z,939.61
2017-09-02T03:53:13.583Z,939.58
2017-09-02T03:53:41.582Z,939.56
2017-09-02T03:54:09.655Z,939.63
2017-09-02T03:54:37.709Z,939.58
2017-09-02T03:55:05.747Z,939.61
2017-09-02T03:55:33.847Z,939.57
2017-09-02T03:56:01.979Z,939.61
2017-09-02T03:56:30.131Z,939.55
2017-09-02T03:56:58.169Z,939.55
2017-09-02T03:57:26.147Z,939.51
2017-09-02T03:57:54.381Z,939.55
2017-09-02T03:58:22.595Z,939.55
2017-09-02T03:58:50.684Z,939.57
2017-09-02T03:59:18.796Z,939.58
2017-09-02T03:59:46.896Z,939.56
2017-09-02T04:00:14.966Z,939.58
2017-09-02T04:00:42.969Z,939.57
2017-09-02T04:01:10.888Z,939.62
2017-09-02T04:01:39.013Z,939.57
2017-09-02T04:02:07.088Z,939.57
2017-09-02T04:02:35.152Z,939.58
2017-09-02T04:03:03.285Z,939.6
2017-09-02T04:03:31.394Z,939.58
2017-09-02T04:03:59.454Z,939.57
2017-09-02T04:04:27.626Z,939.58
2017-09-02T04:04:55.688Z,939.59
2017-09-02T04:05:23.757Z,939.64
2017-09-02T04:05:51.942Z,939.53
2017-09-02T04:06:20.086Z,939.49
2017-09-02T04:06:48.129Z,939.5
2017-09-02T04:07:16.170Z,939.52
2017-09-02T04:07:44.360Z,939.48
2017-09-02T04:08:12.538Z,939.5
2017-09-02T04:08:40.712Z,939.49
2017-09-02T04:09:08.698Z,939.48
2017-09-02T04:09:36.766Z,939.46
2017-09-02T04:10:04.806Z,939.47
2017-09-02T04:10:32.987Z,939.45
2017-09-02T04:11:01.097Z,939.5
2017-09-02T04:11:29.184Z,939.46
2017-09-02T04:11:57.468Z,939.49
2017-09-02T04:12:25.604Z,939.53
2017-09-02T04:12:53.768Z,939.55
2017-09-02T04:13:21.913Z,939.45
2017-09-02T04:13:49.956Z,939.45
2017-09-02T04:14:18.160Z,939.46
2017-09-02T04:14:46.303Z,939.48
2017-09-02T04:15:14.257Z,939.48
2017-09-02T04:15:42.326Z,939.46
2017-09-02T04:16:10.515Z,939.46
2017-09-02T04:16:38.590Z,939.45
2017-09-02T04:17:06.612Z,939.43
2017-09-02T04:17:34.563Z,939.41
2017-09-02T04:18:02.584Z,939.41
2017-09-02T04:18:30.528Z,939.43
2017-09-02T04:18:58.614Z,939.43
2017-09-02T04:19:26.595Z,939.39
2017-09-02T04:19:54.672Z,939.4
2017-09-02T04:20:22.781Z,939.43
2017-09-02T04:20:50.692Z,939.4
2017-09-02T04:21:18.873Z,939.41
2017-09-02T04:21:47.178Z,939.4
2017-09-02T04:22:15.170Z,939.41
2017-09-02T04:22:43.309Z,939.38
2017-09-02T04:23:11.461Z,939.38
2017-09-02T04:23:39.648Z,939.36
2017-09-02T04:24:07.554Z,939.35
2017-09-02T04:24:35.661Z,939.37
2017-09-02T04:25:03.807Z,939.35
2017-09-02T04:25:31.749Z,939.35
2017-09-02T04:25:59.884Z,939.37
2017-09-02T04:26:28.020Z,939.37
2017-09-02T04:26:56.164Z,939.3
2017-09-02T04:27:24.309Z,939.35
2017-09-02T04:27:52.398Z,939.33
2017-09-02T04:28:20.353Z,939.31
2017-09-02T04:28:48.544Z,939.3
2017-09-02T04:29:16.769Z,939.28
2017-09-02T04:29:44.956Z,939.3
2017-09-02T04:30:13.105Z,939.29
2017-09-02T04:30:40.951Z,939.31
2017-09-02T04:31:09.164Z,939.27
2017-09-02T04:31:37.307Z,939.28
2017-09-02T04:32:05.612Z,939.28
2017-09-02T04:32:33.582Z,939.23
2017-09-02T04:33:01.630Z,939.25
2017-09-02T04:33:29.665Z,939.25
2017-09-02T04:33:57.852Z,939.24
2017-09-02T04:34:25.934Z,939.28
2017-09-02T04:34:54.126Z,939.24
2017-09-02T04:35:22.154Z,939.26
2017-09-02T04:35:50.182Z,939.25
2017-09-02T04:36:18.342Z,939.26
2017-09-02T04:36:46.512Z,939.27
2017-09-02T04:37:14.768Z,939.2
2017-09-02T04:37:42.898Z,939.21
2017-09-02T04:38:10.962Z,939.24
2017-09-02T04:38:39.035Z,939.18
2017-09-02T04:39:07.202Z,939.22
2017-09-02T04:39:35.247Z,939.31
2017-09-02T04:40:03.348Z,939.06
2017-09-02T04:40:31.406Z,939.08
2017-09-02T04:40:59.628Z,939.15
2017-09-02T04:41:28.060Z,939.18
2017-09-02T04:41:56.682Z,939.14
2017-09-02T04:42:24.838Z,939.12
2017-09-02T04:42:53.024Z,939.14
2017-09-02T04:43:20.996Z,939.15
2017-09-02T04:43:49.241Z,939.13
2017-09-02T04:44:17.352Z,939.17
2017-09-02T04:44:45.521Z,939.17
2017-09-02T04:45:13.680Z,939.17
2017-09-02T04:45:41.709Z,939.14
2017-09-02T04:46:09.844Z,939.08
2017-09-02T04:46:37.996Z,939.12
2017-09-02T04:47:06.104Z,939.15
2017-09-02T04:47:34.020Z,939.02
2017-09-02T04:48:02.193Z,939.08
2017-09-02T04:48:30.363Z,939.03
2017-09-02T04:48:58.417Z,939.11
2017-09-02T04:49:26.353Z,939.15
2017-09-02T04:49:54.435Z,939.17
2017-09-02T04:50:22.684Z,939.13
2017-09-02T04:50:50.883Z,939.1
2017-09-02T04:51:18.931Z,939.08
2017-09-02T04:51:47.112Z,939.13
2017-09-02T04:52:15.145Z,939.14
2017-09-02T04:52:43.284Z,939.17
2017-09-02T04:53:11.414Z,939.16
2017-09-02T04:53:39.637Z,939.08
2017-09-02T04:54:07.566Z,939.12
2017-09-02T04:54:35.735Z,939.15
2017-09-02T04:55:03.676Z,939.12
2017-09-02T04:55:31.823Z,939.11
2017-09-02T04:55:59.977Z,939.1
2017-09-02T04:56:28.152Z,939.12
2017-09-02T04:56:56.192Z,939.11
2017-09-02T04:57:24.439Z,939.1
2017-09-02T04:57:52.508Z,939.11
2017-09-02T04:58:20.627Z,939.08
2017-09-02T04:58:48.589Z,939.07
2017-09-02T04:59:16.731Z,939.11
2017-09-02T04:59:44.929Z,939.1
2017-09-02T05:00:13.103Z,939.11
2017-09-02T05:00:41.240Z,939.11
2017-09-02T05:01:09.368Z,939.07
2017-09-02T05:01:37.398Z,939.1
2017-09-02T05:02:05.358Z,939.05
2017-09-02T05:02:33.367Z,939.09
2017-09-02T05:03:01.499Z,939.1
2017-09-02T05:03:29.665Z,939.08
2017-09-02T05:03:57.804Z,939.06
2017-09-02T05:04:25.860Z,939.09
2017-09-02T05:04:53.957Z,939.06
2017-09-02T05:05:22.093Z,939.02
2017-09-02T05:05:50.180Z,939.08
2017-09-02T05:06:18.357Z,939.04
2017-09-02T05:06:46.319Z,939.06
2017-09-02T05:07:14.485Z,939.02
2017-09-02T05:07:42.679Z,939.03
2017-09-02T05:08:10.835Z,939.06
2017-09-02T05:08:38.685Z,939.03
2017-09-02T05:09:06.725Z,939.04
2017-09-02T05:09:34.909Z,939.08
2017-09-02T05:10:02.956Z,938.97
2017-09-02T05:10:31.134Z,938.94
2017-09-02T05:10:59.278Z,939
2017-09-02T05:11:27.130Z,938.96
2017-09-02T05:11:55.267Z,938.98
2017-09-02T05:12:23.404Z,938.98
2017-09-02T05:12:51.557Z,938.99
2017-09-02T05:13:19.693Z,939.01
2017-09-02T05:13:47.779Z,938.95
2017-09-02T05:14:15.944Z,938.99
2017-09-02T05:14:44.090Z,938.96
2017-09-02T05:15:12.138Z,938.94
2017-09-02T05:15:40.165Z,938.93
2017-09-02T05:16:08.168Z,938.96
2017-09-02T05:16:36.264Z,938.94
2017-09-02T05:17:04.308Z,938.92
2017-09-02T05:17:32.322Z,938.95
2017-09-02T05:18:00.355Z,938.96
2017-09-02T05:18:28.554Z,938.95
2017-09-02T05:18:56.518Z,938.87
2017-09-02T05:19:24.580Z,938.91
2017-09-02T05:19:52.566Z,938.94
2017-09-02T05:20:20.619Z,938.96
2017-09-02T05:20:48.606Z,938.89
2017-09-02T05:21:16.797Z,938.96
2017-09-02T05:21:45.004Z,938.92
2017-09-02T05:22:13.196Z,938.91
2017-09-02T05:22:41.386Z,938.96
2017-09-02T05:23:09.541Z,938.94
2017-09-02T05:23:37.707Z,938.85
2017-09-02T05:24:05.875Z,938.88
2017-09-02T05:24:33.944Z,938.83
2017-09-02T05:25:02.054Z,938.87
2017-09-02T05:25:30.202Z,938.86
2017-09-02T05:25:58.360Z,938.88
2017-09-02T05:26:26.566Z,938.93
2017-09-02T05:26:54.643Z,938.88
2017-09-02T05:27:22.826Z,938.85
2017-09-02T05:27:50.933Z,938.89
2017-09-02T05:28:18.954Z,938.87
2017-09-02T05:28:47.102Z,938.87
2017-09-02T05:29:15.284Z,938.87
2017-09-02T05:29:43.350Z,938.83
2017-09-02T05:30:11.442Z,938.78
2017-09-02T05:30:39.606Z,938.81
2017-09-02T05:31:07.655Z,938.81
2017-09-02T05:31:35.791Z,938.8
2017-09-02T05:32:03.854Z,938.79
2017-09-02T05:32:32.100Z,938.78
2017-09-02T05:33:00.149Z,938.77
2017-09-02T05:33:28.111Z,938.69
2017-09-02T05:33:56.296Z,938.73
2017-09-02T05:34:24.337Z,938.78
2017-09-02T05:34:52.509Z,938.71
2017-09-02T05:35:20.589Z,938.75
2017-09-02T05:35:48.788Z,938.73
2017-09-02T05:36:16.866Z,938.75
2017-09-02T05:36:44.957Z,938.76
2017-09-02T05:37:13.134Z,938.71
2017-09-02T05:37:41.373Z,938.74
2017-09-02T05:38:09.444Z,938.76
2017-09-02T05:38:37.658Z,938.72
2017-09-02T05:39:05.871Z,938.77
2017-09-02T05:39:33.972Z,938.72
2017-09-02T05:40:02.146Z,938.71
2017-09-02T05:40:30.125Z,938.72
2017-09-02T05:40:58.208Z,938.74
2017-09-02T05:41:26.195Z,938.74
2017-09-02T05:41:54.332Z,938.74
2017-09-02T05:42:22.508Z,938.71
2017-09-02T05:42:50.645Z,938.7
2017-09-02T05:43:18.783Z,938.71
2017-09-02T05:43:46.948Z,938.71
2017-09-02T05:44:15.134Z,938.71
2017-09-02T05:44:43.316Z,938.7
2017-09-02T05:45:11.361Z,938.74
2017-09-02T05:45:39.501Z,938.73
2017-09-02T05:46:07.676Z,938.7
2017-09-02T05:46:35.724Z,938.71
2017-09-02T05:47:03.853Z,938.7
2017-09-02T05:47:31.872Z,938.7
2017-09-02T05:48:00.169Z,938.69
2017-09-02T05:48:28.351Z,938.64
2017-09-02T05:48:56.428Z,938.64
2017-09-02T05:49:24.613Z,938.68
2017-09-02T05:49:52.674Z,938.62
2017-09-02T05:50:20.879Z,938.69
2017-09-02T05:50:48.966Z,938.52
2017-09-02T05:51:16.868Z,938.59